EHRDEHGG

Guest
Details From EHRD - Rotterdam The Hague
To EHGG - Eelde
Flight Number -
Tags decoded
Created
Modified
Stats Distance 105 nm / 194 km
Max Altitude 0 ft / 0 m
Waypoints 2
Social Downloads 6
Likes 0
Share

Download

Looking for another format? Having issues loading an existing format? Contact us
Advertisement - Login to hide

Notes

Requested: EHRD EHGG

Route

EHRD EHGG

ID Type Via Altitude (ft/m) Position (lat/lon) Dist (leg/tot) Name
O EHRD APT - 0 / 0 51.95747 / 4.44166 - / 0 nm Rotterdam The Hague
O EHGG APT - 0 / 0 53.12103 / 6.57707 104 / 104 nm Eelde

Altitude Profile

Advertisement - Login to hide

EHRD

Details ICAO EHRD (RTM)
Name Rotterdam The Hague
Region Netherlands
Timezone Europe/Amsterdam (UTC+1.0)
Stats Elevation -15 ft / -5 m (AMSL)
Location 51.957500° 4.441690°
Runways 1
Magnetic Variation 1.453° E

METAR

EHRD 251655Z AUTO 21009KT 150V290 9999 FEW015CB BKN016 BKN021 12/09 Q0999 TEMPO 23015G25KT 6000 SHRA

Decode

TAF

TAF EHRD 251110Z 2512/2618 21012KT 9999 FEW015 SCT040 PROB30 TEMPO 2512/2521 22015G25KT 6000 SHRA TSRAGS SCT020CB BKN040 BECMG 2609/2612 21015G25KT PROB40 TEMPO 2615/2618 6000 SHRA SCT020CB BKN040

Decode

Departure Runways

ID Width Length Bearing (true/mag) Surface Threshold Overrun Markings Lighting
06 148 ft / 45 m 7,198 ft / 2,194 m 57.03° / 55.57° ASPHALT 643 ft / 196 m 0 ft / 0 m UK-PREC-APP CENTERLINE EDGE THRESHOLD MALSR REIL-UNI
24 148 ft / 45 m 7,198 ft / 2,194 m 237.05° / 235.60° ASPHALT 646 ft / 197 m 0 ft / 0 m PREC-APP CENTERLINE EDGE THRESHOLD MALSR REIL-UNI

EHGG

Details ICAO EHGG (GRQ)
Name Groningen Eelde Airport
Region Netherlands
Timezone Europe/Amsterdam (UTC+1.0)
Stats Elevation 17 ft / 5 m (AMSL)
Location 53.118000° 6.575580°
Runways 1
Magnetic Variation 2.100° E

METAR

EHGG 251655Z AUTO 19009KT 160V220 9999 NSC 12/10 Q0999 NOSIG

Decode

TAF

TAF EHGG 251100Z 2512/2618 19011KT 9999 SCT025 PROB30 2602/2607 BKN012

Decode

Destination Runways

ID Width Length Bearing (true/mag) Surface Threshold Overrun Markings Lighting
05 148 ft / 45 m 8,185 ft / 2,495 m 51.78° / 49.68° ASPHALT 0 ft / 0 m 98 ft / 30 m PREC-APP CENTERLINE EDGE THRESHOLD SALS
23 148 ft / 45 m 8,185 ft / 2,495 m 231.81° / 229.71° ASPHALT 0 ft / 0 m 98 ft / 30 m PREC-APP CENTERLINE EDGE THRESHOLD ALSF-I

Approach Navaids

Runway Type Ident Frequency Range Bearing (true/mag) Slope Elevation
23 LOC-ILS GRO 109.90 MHz 18 nm / 33 km 231.80° / 229.70 ° - 17 ft / 5 m (AMSL)
23 GS GRO 109.90 MHz 10 nm / 19 km 231.80° / 229.70 ° 3.00° 17 ft / 5 m (AMSL)

Popular Alternatives